Time;durP1;ratioP1;P1;durP2;ratioP2;P2;SDS_P1;SDS_P2;PMS_P1;PMS_P2;Temp;Humidity;BMP_temperature;BMP_pressure;BME280_temperature;BME280_humidity;BME280_pressure;Samples;Min_cycle;Max_cycle;Signal;HPM_P1;HPM_P2
2023/04/16 00:00:06;;;;;;;8.73;4.03;;;10.40;99.90;;;;;;5080185;28;20029;-72
2023/04/16 00:02:32;;;;;;;6.30;3.03;;;10.40;99.90;;;;;;5080306;28;20031;-72
2023/04/16 00:04:58;;;;;;;9.30;4.13;;;10.40;99.90;;;;;;5080150;28;20020;-72
2023/04/16 00:07:23;;;;;;;6.07;3.35;;;10.40;99.90;;;;;;5080260;28;20066;-73
2023/04/16 00:09:49;;;;;;;6.38;3.92;;;10.40;99.90;;;;;;5080665;28;20024;-73
2023/04/16 00:12:15;;;;;;;8.88;4.13;;;10.40;99.90;;;;;;5079818;28;20020;-73
2023/04/16 00:14:42;;;;;;;6.85;3.70;;;10.40;99.90;;;;;;5080813;28;20021;-73
2023/04/16 00:17:08;;;;;;;5.43;3.45;;;10.40;99.90;;;;;;5079599;28;20021;-73
2023/04/16 00:19:33;;;;;;;8.32;3.67;;;10.40;99.90;;;;;;5080256;28;20028;-73
2023/04/16 00:21:59;;;;;;;7.32;3.60;;;10.40;99.90;;;;;;5079818;28;20025;-73
2023/04/16 00:24:24;;;;;;;7.40;3.08;;;10.40;99.90;;;;;;5080423;28;20035;-73
2023/04/16 00:26:50;;;;;;;7.60;3.30;;;10.40;99.90;;;;;;5079651;28;20028;-73
2023/04/16 00:29:16;;;;;;;5.35;3.42;;;10.50;99.90;;;;;;5079514;28;20027;-73
2023/04/16 00:31:41;;;;;;;5.13;3.08;;;10.50;99.90;;;;;;5079464;28;20027;-73
2023/04/16 00:34:07;;;;;;;6.03;3.17;;;10.40;99.90;;;;;;5079342;28;20021;-73
2023/04/16 00:36:32;;;;;;;5.68;3.40;;;10.50;99.90;;;;;;5079149;28;20042;-73
2023/04/16 00:38:58;;;;;;;6.90;3.38;;;10.40;99.90;;;;;;5080404;28;20028;-73
2023/04/16 00:41:23;;;;;;;6.35;3.60;;;10.40;99.90;;;;;;5079228;28;20025;-73
2023/04/16 00:43:49;;;;;;;6.07;3.30;;;10.40;99.90;;;;;;5079280;28;20025;-73
2023/04/16 00:46:15;;;;;;;5.72;3.13;;;10.40;99.90;;;;;;5079298;28;20056;-73
2023/04/16 00:48:43;;;;;;;7.22;3.58;;;10.40;99.90;;;;;;5079165;28;20020;-73
2023/04/16 00:51:09;;;;;;;8.98;3.88;;;10.40;99.90;;;;;;5079013;28;20055;-73
2023/04/16 00:53:35;;;;;;;7.18;3.70;;;10.30;99.90;;;;;;5079271;28;20075;-73
2023/04/16 00:56:05;;;;;;;9.63;3.95;;;10.40;99.90;;;;;;5078859;28;20112;-73
2023/04/16 00:58:32;;;;;;;6.28;3.85;;;10.40;99.90;;;;;;5078800;28;20028;-73
2023/04/16 01:00:58;;;;;;;6.07;3.08;;;10.40;99.90;;;;;;5079566;28;20021;-73
2023/04/16 01:03:33;;;;;;;6.93;3.70;;;10.40;99.90;;;;;;5079142;28;20040;-73
2023/04/16 01:06:00;;;;;;;6.38;3.63;;;10.40;99.90;;;;;;5079795;28;20024;-73
2023/04/16 01:08:25;;;;;;;8.02;4.35;;;10.40;99.90;;;;;;5079656;28;20085;-73
2023/04/16 01:10:51;;;;;;;7.32;4.00;;;10.40;99.90;;;;;;5079843;28;20020;-73
2023/04/16 01:13:16;;;;;;;7.50;3.67;;;10.40;99.90;;;;;;5079037;28;20024;-73
2023/04/16 01:15:42;;;;;;;6.38;3.65;;;10.40;99.90;;;;;;5079110;28;20029;-73
2023/04/16 01:18:21;;;;;;;7.93;4.18;;;10.30;99.90;;;;;;5079471;28;20033;-73
2023/04/16 01:20:48;;;;;;;6.78;3.88;;;10.30;99.90;;;;;;5079506;28;20028;-73
2023/04/16 01:23:14;;;;;;;5.85;3.42;;;10.30;99.90;;;;;;5080039;28;20101;-73
2023/04/16 01:25:39;;;;;;;8.40;4.32;;;10.30;99.90;;;;;;5078378;28;20024;-73
2023/04/16 01:28:06;;;;;;;6.57;3.45;;;10.30;99.90;;;;;;5078759;28;20074;-73
2023/04/16 01:30:32;;;;;;;8.35;4.30;;;10.30;99.90;;;;;;5078209;28;20051;-73
2023/04/16 01:32:57;;;;;;;9.43;4.38;;;10.40;99.90;;;;;;5078514;28;20021;-73
2023/04/16 01:35:24;;;;;;;8.68;5.03;;;10.40;99.90;;;;;;5078133;28;20059;-73
2023/04/16 01:37:50;;;;;;;8.52;4.45;;;10.40;99.90;;;;;;5079135;28;20040;-73
2023/04/16 01:40:16;;;;;;;7.13;4.40;;;10.40;99.90;;;;;;5078499;28;20035;-73
2023/04/16 01:42:42;;;;;;;7.78;4.40;;;10.40;99.90;;;;;;5079250;28;20052;-73
2023/04/16 01:45:07;;;;;;;9.48;5.00;;;10.40;99.90;;;;;;5078899;28;20052;-73
2023/04/16 01:47:33;;;;;;;7.22;4.13;;;10.40;99.90;;;;;;5078257;28;20092;-73
2023/04/16 01:50:00;;;;;;;14.02;4.72;;;10.40;99.90;;;;;;5077998;28;20047;-73
2023/04/16 01:52:26;;;;;;;8.23;4.18;;;10.40;99.90;;;;;;5077954;28;20137;-69
2023/04/16 01:54:51;;;;;;;8.70;4.07;;;10.40;99.90;;;;;;5077810;28;20052;-69
2023/04/16 01:57:17;;;;;;;10.40;5.07;;;10.40;99.90;;;;;;5077967;28;20024;-69
2023/04/16 01:59:42;;;;;;;10.00;4.82;;;10.40;99.90;;;;;;5078061;28;20020;-68
2023/04/16 02:02:10;;;;;;;10.10;4.38;;;10.30;99.90;;;;;;5078495;28;20028;-69
2023/04/16 02:04:40;;;;;;;15.55;4.82;;;10.30;99.90;;;;;;5077960;28;20036;-69
2023/04/16 02:07:07;;;;;;;11.50;4.63;;;10.20;99.90;;;;;;5078286;28;20024;-69
2023/04/16 02:09:36;;;;;;;9.73;4.65;;;10.20;99.90;;;;;;5077884;28;20021;-69
2023/04/16 02:12:02;;;;;;;9.68;4.40;;;10.20;99.90;;;;;;5077893;28;20021;-69
2023/04/16 02:14:28;;;;;;;9.57;4.60;;;10.20;99.90;;;;;;5078049;28;20044;-69
2023/04/16 02:16:54;;;;;;;12.82;4.35;;;10.20;99.90;;;;;;5077570;28;20031;-69
2023/04/16 02:19:21;;;;;;;13.93;4.95;;;10.10;99.90;;;;;;5078260;28;20028;-68
2023/04/16 02:21:47;;;;;;;8.45;5.00;;;10.10;99.90;;;;;;5077397;28;20052;-69
2023/04/16 02:24:13;;;;;;;11.23;4.68;;;10.10;99.90;;;;;;5077535;28;20025;-69
2023/04/16 02:26:39;;;;;;;9.13;5.03;;;10.10;99.90;;;;;;5077736;28;20043;-68
2023/04/16 02:29:05;;;;;;;8.70;4.80;;;10.10;99.90;;;;;;5082586;28;20115;-69
2023/04/16 02:31:30;;;;;;;8.20;4.70;;;10.10;99.90;;;;;;5077968;28;20025;-69
2023/04/16 02:33:56;;;;;;;8.75;5.13;;;10.20;99.90;;;;;;5077381;28;20024;-69
2023/04/16 02:36:22;;;;;;;8.23;4.40;;;10.20;99.90;;;;;;5076925;28;20028;-69
2023/04/16 02:38:47;;;;;;;7.97;4.20;;;10.20;99.90;;;;;;5077582;28;20020;-69
2023/04/16 02:41:13;;;;;;;8.30;4.15;;;10.20;99.90;;;;;;5078067;28;20025;-69
2023/04/16 02:43:39;;;;;;;10.65;4.95;;;10.20;99.90;;;;;;5076978;28;20052;-69
2023/04/16 02:46:04;;;;;;;12.02;5.65;;;10.30;99.90;;;;;;5077683;28;20021;-69
2023/04/16 02:48:30;;;;;;;10.63;5.13;;;10.30;99.90;;;;;;5077777;28;20020;-69
2023/04/16 02:50:56;;;;;;;12.13;5.65;;;10.30;99.90;;;;;;5077011;28;20027;-69
2023/04/16 02:53:22;;;;;;;10.55;5.00;;;10.30;99.90;;;;;;5077849;28;20088;-69
2023/04/16 02:55:51;;;;;;;10.48;5.57;;;10.30;99.90;;;;;;5077454;28;20028;-69
2023/04/16 02:58:18;;;;;;;9.48;5.00;;;10.30;99.90;;;;;;5076706;28;20028;-69
2023/04/16 03:00:43;;;;;;;9.85;5.28;;;10.30;99.90;;;;;;5076597;28;20036;-69
2023/04/16 03:03:09;;;;;;;9.85;5.95;;;10.20;99.90;;;;;;5077498;28;20028;-69
2023/04/16 03:05:34;;;;;;;9.75;5.05;;;10.20;99.90;;;;;;5076360;28;20128;-69
2023/04/16 03:08:00;;;;;;;10.18;5.78;;;10.10;99.90;;;;;;5076910;28;20016;-69
2023/04/16 03:10:25;;;;;;;11.10;6.05;;;10.10;99.90;;;;;;5076456;28;20028;-69
2023/04/16 03:12:51;;;;;;;9.98;5.57;;;10.10;99.90;;;;;;5077377;28;20024;-69
2023/04/16 03:15:17;;;;;;;9.00;5.40;;;10.10;99.90;;;;;;5076436;28;20020;-69
2023/04/16 03:17:42;;;;;;;7.82;4.90;;;10.10;99.90;;;;;;5076347;28;20032;-69
2023/04/16 03:20:09;;;;;;;8.10;4.53;;;10.20;99.90;;;;;;5077288;28;20024;-69
2023/04/16 03:22:34;;;;;;;11.23;6.00;;;10.20;99.90;;;;;;5076654;28;20025;-68
2023/04/16 03:25:00;;;;;;;10.77;5.05;;;10.20;99.90;;;;;;5076955;28;20032;-69
2023/04/16 03:27:25;;;;;;;9.90;4.57;;;10.20;99.90;;;;;;5077162;28;20040;-69
2023/04/16 03:29:51;;;;;;;9.75;4.78;;;10.20;99.90;;;;;;5076726;28;20052;-68
2023/04/16 03:32:16;;;;;;;9.07;4.80;;;10.20;99.90;;;;;;5082035;28;20073;-69
2023/04/16 03:34:43;;;;;;;8.95;4.93;;;10.20;99.90;;;;;;5077119;28;20024;-69
2023/04/16 03:37:10;;;;;;;9.75;5.45;;;10.30;99.90;;;;;;5076852;28;20029;-69
2023/04/16 03:39:37;;;;;;;8.10;4.75;;;10.30;99.90;;;;;;5076394;28;20032;-69
2023/04/16 03:42:02;;;;;;;7.22;4.50;;;10.20;99.90;;;;;;5077294;28;20078;-69
2023/04/16 03:44:29;;;;;;;8.70;4.82;;;10.20;99.90;;;;;;5077022;28;20028;-69
2023/04/16 03:46:54;;;;;;;10.68;5.00;;;10.20;99.90;;;;;;5076197;28;20090;-69
2023/04/16 03:49:20;;;;;;;10.55;5.00;;;10.10;99.90;;;;;;5076865;28;20020;-69
2023/04/16 03:51:46;;;;;;;9.20;4.97;;;10.10;99.90;;;;;;5076157;28;20025;-69
2023/04/16 03:54:11;;;;;;;8.52;4.22;;;10.20;99.90;;;;;;5077046;28;20024;-69
2023/04/16 03:56:39;;;;;;;8.77;4.68;;;10.20;99.90;;;;;;5076279;28;20040;-69
2023/04/16 03:59:05;;;;;;;7.55;4.15;;;10.20;99.90;;;;;;5076801;28;20017;-68
2023/04/16 04:01:30;;;;;;;6.70;4.40;;;10.20;99.90;;;;;;5076111;28;20077;-69
2023/04/16 04:03:56;;;;;;;9.93;4.00;;;10.20;99.90;;;;;;5075993;28;20027;-69
2023/04/16 04:06:22;;;;;;;10.02;4.28;;;10.20;99.90;;;;;;5075777;28;20025;-69
2023/04/16 04:08:47;;;;;;;7.68;4.30;;;10.20;99.90;;;;;;5077270;28;20059;-69
2023/04/16 04:11:12;;;;;;;8.48;4.18;;;10.30;99.90;;;;;;5075871;28;20069;-69
2023/04/16 04:13:38;;;;;;;8.98;4.00;;;10.30;99.90;;;;;;5075850;28;20024;-68
2023/04/16 04:16:04;;;;;;;6.15;3.60;;;10.30;99.90;;;;;;5076154;28;20031;-69
2023/04/16 04:18:30;;;;;;;6.38;3.72;;;10.30;99.90;;;;;;5075759;28;20024;-69
2023/04/16 04:20:56;;;;;;;7.03;3.97;;;10.30;99.90;;;;;;5076729;28;20036;-69
2023/04/16 04:23:22;;;;;;;6.78;3.88;;;10.20;99.90;;;;;;5076633;28;20024;-69
2023/04/16 04:25:48;;;;;;;5.45;3.47;;;10.30;99.90;;;;;;5075490;28;20020;-69
2023/04/16 04:28:14;;;;;;;6.47;3.63;;;10.30;99.90;;;;;;5076777;28;20120;-69
2023/04/16 04:30:40;;;;;;;8.07;4.55;;;10.30;99.90;;;;;;5076806;28;20021;-69
2023/04/16 04:33:05;;;;;;;9.10;4.18;;;10.40;99.90;;;;;;5076845;28;20032;-69
2023/04/16 04:35:31;;;;;;;5.13;3.47;;;10.30;99.90;;;;;;5097722;22;20013;-75
2023/04/16 04:37:57;;;;;;;9.15;3.85;;;10.30;99.90;;;;;;5080217;28;20048;-73
2023/04/16 04:40:22;;;;;;;7.40;3.72;;;10.30;99.90;;;;;;5079647;28;20017;-73
2023/04/16 04:42:48;;;;;;;6.72;3.53;;;10.30;99.90;;;;;;5079280;28;20028;-74
2023/04/16 04:45:14;;;;;;;6.90;3.83;;;10.30;99.90;;;;;;5079167;28;20115;-74
2023/04/16 04:47:39;;;;;;;7.07;4.03;;;10.40;99.90;;;;;;5060072;28;20025;-74
2023/04/16 04:50:05;;;;;;;7.60;4.68;;;10.40;99.90;;;;;;5060274;28;20032;-72
2023/04/16 04:52:31;;;;;;;8.02;4.88;;;10.30;99.90;;;;;;5059113;28;20025;-72
2023/04/16 04:54:56;;;;;;;6.10;3.80;;;10.40;99.90;;;;;;5059130;28;20059;-72
2023/04/16 04:57:22;;;;;;;8.25;4.25;;;10.40;99.90;;;;;;5059121;28;20028;-72
2023/04/16 04:59:47;;;;;;;10.43;4.65;;;10.40;99.90;;;;;;5059785;28;20025;-72
2023/04/16 05:02:13;;;;;;;10.80;4.20;;;10.40;99.90;;;;;;5058892;28;20031;-71
2023/04/16 05:04:38;;;;;;;7.90;3.92;;;10.40;99.90;;;;;;5059602;28;20033;-72
2023/04/16 05:07:05;;;;;;;10.43;5.13;;;10.40;99.90;;;;;;5058608;28;20029;-72
2023/04/16 05:09:30;;;;;;;8.45;4.82;;;10.40;99.90;;;;;;5059634;28;20112;-74
2023/04/16 05:11:56;;;;;;;12.05;5.60;;;10.40;99.90;;;;;;5058706;28;20084;-74
2023/04/16 05:14:22;;;;;;;10.52;5.20;;;10.40;99.90;;;;;;5058979;28;20025;-72
2023/04/16 05:16:47;;;;;;;11.57;5.22;;;10.40;99.90;;;;;;5058829;28;20032;-71
2023/04/16 05:19:13;;;;;;;11.48;5.32;;;10.40;99.90;;;;;;5058978;28;20059;-72
2023/04/16 05:21:39;;;;;;;8.38;4.88;;;10.30;99.90;;;;;;5059272;28;20059;-72
2023/04/16 05:24:05;;;;;;;13.98;6.05;;;10.30;99.90;;;;;;5059049;28;20120;-72
2023/04/16 05:26:30;;;;;;;13.18;6.35;;;10.30;99.90;;;;;;5058337;28;20032;-71
2023/04/16 05:28:56;;;;;;;12.55;5.93;;;10.30;99.90;;;;;;5059270;28;20025;-71
2023/04/16 05:31:21;;;;;;;12.75;5.95;;;10.30;99.90;;;;;;5058720;28;20114;-71
2023/04/16 05:33:47;;;;;;;11.90;5.65;;;10.30;99.90;;;;;;5058346;28;20021;-71
2023/04/16 05:36:12;;;;;;;13.73;6.47;;;10.20;99.90;;;;;;5058120;28;20033;-71
2023/04/16 05:38:38;;;;;;;14.93;6.90;;;10.20;99.90;;;;;;5058294;28;20074;-74
2023/04/16 05:41:03;;;;;;;13.18;6.03;;;10.20;99.90;;;;;;5058444;28;20024;-74
2023/04/16 05:43:29;;;;;;;13.18;6.28;;;10.20;99.90;;;;;;5058538;28;20046;-72
2023/04/16 05:45:55;;;;;;;15.48;6.82;;;10.20;99.90;;;;;;5058165;28;20031;-72
2023/04/16 05:48:20;;;;;;;12.02;6.20;;;10.20;99.90;;;;;;5058898;28;20017;-72
2023/04/16 05:50:46;;;;;;;13.07;6.55;;;10.20;99.90;;;;;;5058311;28;20017;-74
2023/04/16 05:53:13;;;;;;;12.55;6.75;;;10.20;99.90;;;;;;5057802;28;20029;-74
2023/04/16 05:55:38;;;;;;;13.52;6.10;;;10.20;99.90;;;;;;5057713;28;20021;-74
2023/04/16 05:58:04;;;;;;;12.40;6.40;;;10.10;99.90;;;;;;5059046;28;20021;-73
2023/04/16 06:00:31;;;;;;;19.23;6.15;;;10.10;99.90;;;;;;5057627;28;20052;-73
2023/04/16 06:02:56;;;;;;;12.32;6.40;;;10.10;99.90;;;;;;5057779;28;20115;-74
2023/04/16 06:05:22;;;;;;;14.40;6.78;;;10.20;99.90;;;;;;5058446;28;20053;-73
2023/04/16 06:07:48;;;;;;;13.73;6.60;;;10.30;99.90;;;;;;5057546;28;20021;-73
2023/04/16 06:10:13;;;;;;;10.80;6.03;;;10.30;99.90;;;;;;5057491;28;20048;-73
2023/04/16 06:12:39;;;;;;;13.38;7.03;;;10.30;99.90;;;;;;5057519;28;20045;-73
2023/04/16 06:15:05;;;;;;;16.33;6.78;;;10.30;99.90;;;;;;5057635;28;20021;-73
2023/04/16 06:17:31;;;;;;;13.73;6.90;;;10.30;99.90;;;;;;5057636;28;20021;-73
2023/04/16 06:19:56;;;;;;;16.52;8.57;;;10.30;99.90;;;;;;5058638;28;20067;-73
2023/04/16 06:22:22;;;;;;;13.45;6.65;;;10.30;99.90;;;;;;5057438;28;20108;-73
2023/04/16 06:24:48;;;;;;;16.20;7.25;;;10.30;99.90;;;;;;5057276;28;20060;-73
2023/04/16 06:27:13;;;;;;;12.48;6.70;;;10.30;99.90;;;;;;5057949;28;20078;-73
2023/04/16 06:29:39;;;;;;;13.23;7.05;;;10.30;99.90;;;;;;5057735;28;20021;-73
2023/04/16 06:32:05;;;;;;;14.93;7.97;;;10.30;99.90;;;;;;5058145;28;20028;-74
2023/04/16 06:34:30;;;;;;;18.23;7.28;;;10.20;99.90;;;;;;5057326;28;20021;-73
2023/04/16 06:36:56;;;;;;;15.10;7.68;;;10.30;99.90;;;;;;5057131;28;20040;-73
2023/04/16 06:39:21;;;;;;;19.05;7.57;;;10.30;99.90;;;;;;5057868;28;20056;-73
2023/04/16 06:41:47;;;;;;;18.15;7.82;;;10.30;99.90;;;;;;5057296;28;20029;-72
2023/04/16 06:44:13;;;;;;;13.73;7.13;;;10.40;99.90;;;;;;5057941;28;20028;-72
2023/04/16 06:46:39;;;;;;;15.35;7.53;;;10.40;99.90;;;;;;5057806;28;20121;-72
2023/04/16 06:49:05;;;;;;;14.00;7.05;;;10.40;99.90;;;;;;5057630;28;20021;-72
2023/04/16 06:51:31;;;;;;;15.35;7.40;;;10.50;99.90;;;;;;5056935;28;20029;-72
2023/04/16 06:53:56;;;;;;;12.88;7.30;;;10.50;99.90;;;;;;5057584;28;20017;-72
2023/04/16 06:56:22;;;;;;;13.60;6.72;;;10.50;99.90;;;;;;5056686;28;20032;-72
2023/04/16 06:58:47;;;;;;;17.70;7.13;;;10.60;99.90;;;;;;5056319;28;20028;-72
2023/04/16 07:01:13;;;;;;;16.83;7.32;;;10.60;99.90;;;;;;5057463;28;20021;-72
2023/04/16 07:03:38;;;;;;;16.83;7.93;;;10.60;99.90;;;;;;5056604;28;20044;-71
2023/04/16 07:06:04;;;;;;;18.13;7.72;;;10.60;99.90;;;;;;5056359;28;20036;-72
2023/04/16 07:08:29;;;;;;;16.25;7.68;;;10.60;99.90;;;;;;5056841;28;20108;-71
2023/04/16 07:10:55;;;;;;;15.25;7.80;;;10.70;99.90;;;;;;5056513;28;20025;-71
2023/04/16 07:13:21;;;;;;;16.20;7.13;;;10.60;99.90;;;;;;5057365;28;20032;-71
2023/04/16 07:15:46;;;;;;;17.17;7.63;;;10.60;99.90;;;;;;5056633;28;20024;-71
2023/04/16 07:18:12;;;;;;;19.02;8.85;;;10.70;99.90;;;;;;5056405;28;20024;-72
2023/04/16 07:20:37;;;;;;;17.90;7.60;;;10.70;99.90;;;;;;5056338;28;20021;-72
2023/04/16 07:23:03;;;;;;;15.35;8.18;;;10.80;99.90;;;;;;5056298;28;20021;-72
2023/04/16 07:25:29;;;;;;;17.27;7.63;;;10.80;99.90;;;;;;5056228;28;20112;-72
2023/04/16 07:27:54;;;;;;;15.60;7.72;;;10.80;99.90;;;;;;5057158;28;20029;-72
2023/04/16 07:30:20;;;;;;;15.02;7.75;;;10.80;99.90;;;;;;5056183;28;20027;-72
2023/04/16 07:32:45;;;;;;;17.33;7.95;;;10.80;99.90;;;;;;5056184;28;20021;-72
2023/04/16 07:35:11;;;;;;;15.85;7.60;;;10.90;99.90;;;;;;5057203;28;20031;-72
2023/04/16 07:37:36;;;;;;;11.90;6.60;;;10.90;99.90;;;;;;5056450;28;20064;-74
2023/04/16 07:40:03;;;;;;;14.55;7.18;;;10.90;99.90;;;;;;5056318;28;20029;-74
2023/04/16 07:42:28;;;;;;;16.50;8.18;;;10.90;99.90;;;;;;5056359;28;20033;-74
2023/04/16 07:44:54;;;;;;;15.13;7.00;;;10.90;99.90;;;;;;5056055;28;20132;-74
2023/04/16 07:47:21;;;;;;;16.55;7.97;;;11.00;99.90;;;;;;5056156;28;20021;-74
2023/04/16 07:49:48;;;;;;;14.02;7.05;;;11.00;99.90;;;;;;5055837;28;20028;-74
2023/04/16 07:52:13;;;;;;;17.90;8.35;;;11.00;99.90;;;;;;5056015;28;20112;-74
2023/04/16 07:54:39;;;;;;;14.68;7.43;;;11.10;99.90;;;;;;5056330;28;20057;-75
2023/04/16 07:57:04;;;;;;;15.50;7.97;;;11.20;99.90;;;;;;5056997;28;20032;-75
2023/04/16 07:59:30;;;;;;;14.27;7.53;;;11.20;99.90;;;;;;5057039;28;20029;-75
2023/04/16 08:01:56;;;;;;;16.27;7.95;;;11.40;99.90;;;;;;5056177;28;20045;-75
2023/04/16 08:04:24;;;;;;;13.10;7.68;;;11.40;99.90;;;;;;5056103;28;20082;-74
2023/04/16 08:06:50;;;;;;;14.13;7.50;;;11.50;99.90;;;;;;5055725;28;20025;-74
2023/04/16 08:09:17;;;;;;;16.60;7.70;;;11.50;99.90;;;;;;5056056;28;20021;-74
2023/04/16 08:11:43;;;;;;;13.10;6.82;;;11.50;99.90;;;;;;5058339;28;20023;-74
2023/04/16 08:14:08;;;;;;;13.23;6.72;;;11.60;99.90;;;;;;5059954;28;20025;-74
2023/04/16 08:16:34;;;;;;;15.90;7.93;;;11.60;99.90;;;;;;5060316;28;20028;-74
2023/04/16 08:19:00;;;;;;;12.60;6.68;;;11.60;99.90;;;;;;5060431;28;20025;-74
2023/04/16 08:21:26;;;;;;;13.13;7.45;;;11.60;99.90;;;;;;5060055;28;20032;-72
2023/04/16 08:23:52;;;;;;;13.38;7.38;;;11.70;99.90;;;;;;5060485;28;20036;-72
2023/04/16 08:26:19;;;;;;;19.35;8.43;;;11.70;99.90;;;;;;5059799;28;20029;-72
2023/04/16 08:28:44;;;;;;;11.43;6.95;;;11.80;99.90;;;;;;5059955;28;20032;-72
2023/04/16 08:31:10;;;;;;;12.07;7.13;;;11.90;99.90;;;;;;5060229;28;20021;-72
2023/04/16 08:33:36;;;;;;;13.93;7.05;;;11.90;99.90;;;;;;5059798;28;20075;-73
2023/04/16 08:36:01;;;;;;;14.60;7.35;;;11.90;99.90;;;;;;5059526;28;20100;-73
2023/04/16 08:38:27;;;;;;;11.20;6.20;;;12.00;99.90;;;;;;5059831;28;20032;-74
2023/04/16 08:40:55;;;;;;;13.93;7.20;;;12.00;99.90;;;;;;5059301;28;20044;-74
2023/04/16 08:43:22;;;;;;;13.38;7.05;;;12.00;99.90;;;;;;5060061;28;20029;-74
2023/04/16 08:45:48;;;;;;;12.77;6.63;;;12.00;99.90;;;;;;5059759;28;20024;-72
2023/04/16 08:48:14;;;;;;;11.88;6.78;;;12.00;99.90;;;;;;5059169;28;20031;-72
2023/04/16 08:50:40;;;;;;;13.15;7.13;;;12.00;99.90;;;;;;5060178;28;20021;-72
2023/04/16 08:53:10;;;;;;;11.20;6.53;;;12.00;99.90;;;;;;5059136;28;20021;-72
2023/04/16 08:55:42;;;;;;;10.35;5.70;;;12.00;99.90;;;;;;5059269;28;20075;-71
2023/04/16 08:58:13;;;;;;;14.35;7.10;;;12.10;99.90;;;;;;5059104;28;20032;-72
2023/04/16 09:00:40;;;;;;;13.45;6.47;;;12.10;99.90;;;;;;5060114;28;20021;-73
2023/04/16 09:03:06;;;;;;;11.45;6.25;;;12.10;99.90;;;;;;5059233;28;20036;-72
2023/04/16 09:05:32;;;;;;;11.70;6.25;;;12.10;99.90;;;;;;5059686;28;20047;-72
2023/04/16 09:07:58;;;;;;;10.48;6.72;;;12.10;99.90;;;;;;5059067;28;20033;-72
2023/04/16 09:10:25;;;;;;;12.88;7.28;;;12.10;99.90;;;;;;5059907;28;20021;-72
2023/04/16 09:12:54;;;;;;;12.18;6.93;;;12.10;99.90;;;;;;5059069;28;20025;-72
2023/04/16 09:15:20;;;;;;;12.10;6.63;;;12.10;99.90;;;;;;5059408;28;20024;-72
2023/04/16 09:17:45;;;;;;;14.15;6.88;;;12.10;99.90;;;;;;5059016;28;20021;-72
2023/04/16 09:20:11;;;;;;;12.10;6.68;;;12.20;99.90;;;;;;5058915;28;20033;-72
2023/04/16 09:22:39;;;;;;;12.65;6.70;;;12.10;99.90;;;;;;5058093;28;20075;-72
2023/04/16 09:25:05;;;;;;;12.07;6.72;;;12.20;99.90;;;;;;5059123;28;20059;-72
2023/04/16 09:27:31;;;;;;;12.70;6.53;;;12.20;99.90;;;;;;5058540;28;20021;-72
2023/04/16 09:29:57;;;;;;;11.68;6.70;;;12.20;99.90;;;;;;5058335;28;20032;-72
2023/04/16 09:32:27;;;;;;;12.48;6.75;;;12.20;99.90;;;;;;5058574;28;20028;-72
2023/04/16 09:35:00;;;;;;;10.70;6.63;;;12.30;99.90;;;;;;5058664;28;20028;-72
2023/04/16 09:37:29;;;;;;;12.13;6.65;;;12.30;99.90;;;;;;5058131;28;20040;-72
2023/04/16 09:39:56;;;;;;;11.00;6.50;;;12.30;99.90;;;;;;5059024;28;20056;-72
2023/04/16 09:42:30;;;;;;;13.00;7.32;;;12.30;99.90;;;;;;5058926;28;20025;-74
2023/04/16 09:44:56;;;;;;;11.48;7.20;;;12.30;99.90;;;;;;5059091;28;20107;-74
2023/04/16 09:47:23;;;;;;;12.75;7.18;;;12.20;99.90;;;;;;5058178;28;20031;-74
2023/04/16 09:49:50;;;;;;;11.40;7.00;;;12.20;99.90;;;;;;5058514;28;20135;-74
2023/04/16 09:52:18;;;;;;;12.63;7.50;;;12.20;99.90;;;;;;5058064;28;20068;-74
2023/04/16 09:54:50;;;;;;;13.60;7.32;;;12.20;99.90;;;;;;5058545;28;20032;-72
2023/04/16 09:57:24;;;;;;;17.33;6.70;;;12.20;99.90;;;;;;5058631;28;20029;-74
2023/04/16 09:59:56;;;;;;;12.27;7.50;;;12.20;99.90;;;;;;5057872;28;20082;-74
2023/04/16 10:02:26;;;;;;;15.13;7.68;;;12.20;99.90;;;;;;5058114;28;20111;-74
2023/04/16 10:04:52;;;;;;;12.82;7.43;;;12.20;99.90;;;;;;5058474;28;20028;-72
2023/04/16 10:07:19;;;;;;;14.55;7.82;;;12.10;99.90;;;;;;5057638;28;20029;-72
2023/04/16 10:09:51;;;;;;;17.77;8.60;;;12.10;99.90;;;;;;5058371;28;20032;-72
2023/04/16 10:12:16;;;;;;;15.38;8.15;;;12.10;99.90;;;;;;5057529;28;20033;-72
2023/04/16 10:14:42;;;;;;;13.48;7.78;;;12.10;99.90;;;;;;5057898;28;20017;-72
2023/04/16 10:17:08;;;;;;;13.45;8.07;;;12.20;99.90;;;;;;5057914;28;20025;-72
2023/04/16 10:19:34;;;;;;;15.27;8.40;;;12.20;99.90;;;;;;5057604;28;20025;-72
2023/04/16 10:22:03;;;;;;;14.18;7.72;;;12.20;99.90;;;;;;5058103;28;20021;-72
2023/04/16 10:24:30;;;;;;;14.30;8.27;;;12.10;99.90;;;;;;5058112;28;20083;-72
2023/04/16 10:26:57;;;;;;;17.38;9.02;;;12.20;99.90;;;;;;5057466;28;20032;-72
2023/04/16 10:29:24;;;;;;;13.73;7.93;;;12.10;99.90;;;;;;5057565;28;20019;-74
2023/04/16 10:31:51;;;;;;;14.68;8.13;;;12.20;99.90;;;;;;5057807;28;20025;-74
2023/04/16 10:34:18;;;;;;;13.88;8.10;;;12.20;99.90;;;;;;5056837;28;20021;-74
2023/04/16 10:36:54;;;;;;;14.02;7.63;;;12.20;99.90;;;;;;5057643;28;20128;-74
2023/04/16 10:39:21;;;;;;;17.20;8.98;;;12.30;99.90;;;;;;5057715;28;20033;-74
2023/04/16 10:41:48;;;;;;;14.48;7.93;;;12.30;99.90;;;;;;5056957;28;20036;-74
2023/04/16 10:44:18;;;;;;;13.45;8.20;;;12.30;99.90;;;;;;5057873;28;20025;-74
2023/04/16 10:46:50;;;;;;;18.70;9.02;;;12.40;99.90;;;;;;5057041;28;20036;-74
2023/04/16 10:49:18;;;;;;;17.13;8.82;;;12.30;99.90;;;;;;5057223;28;20021;-74
2023/04/16 10:52:10;;;;;;;14.13;8.23;;;12.30;99.90;;;;;;5057113;28;20033;-74
2023/04/16 10:54:36;;;;;;;15.70;8.95;;;12.30;99.90;;;;;;5052474;28;20056;-74
2023/04/16 10:57:07;;;;;;;17.10;9.45;;;12.30;99.90;;;;;;5056664;28;20126;-74
2023/04/16 10:59:35;;;;;;;20.40;10.00;;;12.30;99.90;;;;;;5057229;28;20044;-74
2023/04/16 11:02:27;;;;;;;17.27;9.57;;;12.20;99.90;;;;;;5056755;28;20025;-74
2023/04/16 11:04:56;;;;;;;19.00;10.55;;;12.20;99.90;;;;;;5054577;28;20037;-74
2023/04/16 11:07:32;;;;;;;18.73;10.25;;;12.20;99.90;;;;;;5056728;28;20028;-72
2023/04/16 11:10:00;;;;;;;16.50;8.55;;;12.20;99.90;;;;;;5057347;28;20025;-72
2023/04/16 11:12:36;;;;;;;17.00;9.55;;;12.20;99.90;;;;;;5056456;28;20082;-72
2023/04/16 11:15:08;;;;;;;21.35;9.35;;;12.20;99.90;;;;;;5056796;28;20032;-74
2023/04/16 11:17:44;;;;;;;16.92;9.07;;;12.30;99.90;;;;;;5056578;28;20155;-74
2023/04/16 11:20:21;;;;;;;17.48;8.85;;;12.20;99.90;;;;;;5057210;28;20111;-74
2023/04/16 11:22:52;;;;;;;19.58;10.15;;;12.20;99.90;;;;;;5057106;28;20025;-74
2023/04/16 11:25:22;;;;;;;19.77;9.75;;;12.20;99.90;;;;;;5056266;28;20033;-74
2023/04/16 11:27:48;;;;;;;19.58;10.10;;;12.20;99.90;;;;;;5056445;28;20024;-74
2023/04/16 11:30:14;;;;;;;17.92;9.05;;;12.20;99.90;;;;;;5056534;28;20021;-74
2023/04/16 11:32:40;;;;;;;17.13;9.98;;;12.30;99.90;;;;;;5057124;28;20032;-74
2023/04/16 11:35:16;;;;;;;17.80;9.65;;;12.30;99.90;;;;;;5057080;28;20021;-74
2023/04/16 11:37:42;;;;;;;24.92;9.80;;;12.40;99.90;;;;;;5056054;28;20033;-72
2023/04/16 11:40:09;;;;;;;20.80;9.48;;;12.40;99.90;;;;;;5056000;28;20031;-72
2023/04/16 11:42:36;;;;;;;16.40;8.80;;;12.50;99.90;;;;;;5056842;28;20032;-72
2023/04/16 11:45:02;;;;;;;16.65;9.75;;;12.60;99.90;;;;;;5055986;28;20083;-72
2023/04/16 11:47:30;;;;;;;16.85;9.32;;;12.60;99.90;;;;;;5056151;28;20079;-72
2023/04/16 11:49:56;;;;;;;20.27;9.40;;;12.70;99.90;;;;;;5056417;28;20048;-72
2023/04/16 11:52:29;;;;;;;18.17;9.18;;;12.70;99.90;;;;;;5056363;28;20017;-72
2023/04/16 11:54:56;;;;;;;14.50;8.98;;;12.80;99.90;;;;;;5056465;28;20052;-73
2023/04/16 11:57:28;;;;;;;15.85;8.95;;;12.90;99.90;;;;;;5056238;28;20025;-72
2023/04/16 11:59:55;;;;;;;16.33;8.50;;;13.00;99.90;;;;;;5056760;28;20025;-73
2023/04/16 12:02:34;;;;;;;17.83;8.38;;;13.10;99.90;;;;;;5056806;28;20025;-73
2023/04/16 12:05:00;;;;;;;16.05;7.53;;;13.20;99.90;;;;;;5056323;28;20025;-73
2023/04/16 12:07:26;;;;;;;15.20;7.90;;;13.30;99.90;;;;;;5055914;28;20116;-73
2023/04/16 12:10:05;;;;;;;15.00;7.95;;;13.40;99.90;;;;;;5056207;28;20045;-73
2023/04/16 12:12:31;;;;;;;12.93;7.85;;;13.50;99.90;;;;;;5056176;28;20021;-75
2023/04/16 12:15:02;;;;;;;13.93;7.00;;;13.60;99.90;;;;;;5056164;28;20027;-73
2023/04/16 12:17:28;;;;;;;14.48;7.35;;;13.70;99.90;;;;;;5056082;28;20116;-73
2023/04/16 12:20:04;;;;;;;18.88;7.72;;;13.70;99.90;;;;;;5056657;28;20068;-72
2023/04/16 12:22:35;;;;;;;15.45;7.60;;;13.60;99.90;;;;;;5056578;28;20119;-73
2023/04/16 12:25:06;;;;;;;11.65;6.75;;;13.50;99.90;;;;;;5056080;28;20070;-73
2023/04/16 12:27:47;;;;;;;12.80;7.18;;;13.50;99.90;;;;;;5056016;28;20032;-73
2023/04/16 12:30:21;;;;;;;11.15;6.80;;;13.60;99.90;;;;;;5056353;28;20025;-73
2023/04/16 12:32:52;;;;;;;9.95;6.18;;;13.60;99.90;;;;;;5056624;28;20029;-73
2023/04/16 12:35:32;;;;;;;10.98;6.13;;;13.60;99.90;;;;;;5056317;28;20021;-73
2023/04/16 12:37:58;;;;;;;10.50;6.57;;;13.60;99.90;;;;;;5055699;28;20029;-73